Aérodrome :
LOGIN :

S'inscrire | Disclaimer

   EN    FR    IT 

 










Légende :    VFR   VFR Marginal   IFR   IFR Intensif   IFR Très Intensif
Visi : 
Plafond : 
>= 8 km
>= 3000ft
5 à 8 km
1000 à 3000 ft
1500m à 5 km
500 à 1000 ft
800 à 1500m
200 à 500 ft
< 800m
< 200 ft
Symboles :   Orages  Brouillard  Fortes neiges  Fortes précipitations  Vent > 20 kt
SIGMETs :   Divers  Orages  Givrage  Turbulence  Onde Orograph.  Cendres Volcan.







- Altitude de l'aérodrome : 863 ft
- Code IATA : ZAZ


LEZG - Zaragoza Aragon

DERNIER METAR :
  • 170900Z 29008KT 260V320 9999 FEW085 16/11 Q1018

METARs EXPIRÉS :
  • 170830Z 27007KT 9999 FEW085 15/11 Q1018
  • 170800Z 28004KT 240V300 9999 FEW085 14/11 Q1018
  • 170730Z 27004KT 9999 FEW085 12/10 Q1018
  • 170700Z 26005KT 9999 SCT085 12/10 Q1018
  • 170630Z 27008KT 9999 FEW070 13/10 Q1018

TAF TAF LEZG
Valide du 17 à 06h jusqu'au 18 à 06h UTC


170500Z 1706/1806 28007KT 9999 FEW040 TX23/1713Z TN12/1706Z
BECMG 1713/1715 10006KT
Pas de NOTAMs connus pour ce terrain.



MET'MAP, la Météo Aéronautique d'un coup d'oeil ! - Copyright ORBIFLY Décembre 2007 - Disclaimer

ORBIFLY MET'MAP TEAM :

Programmation & Développement : Alexandra Zaïnal
Conception & Développement : Baudouin d'Aumeries
Co-Programmation & Développement : Marc-Olivier Méhu
Soutien technique & logistique : Manuel Goepfert

Contact : metmap@orbifly.com




SOURCES & CREDITS :

   NOAA